sensor_id;sensor_type;location;lat;lon;timestamp;P1;durP1;ratioP1;P2;durP2;ratioP2
23634;SDS011;11994;51.038;16.974;2022-12-07T00:01:09;8.13;;;5.40;;
23634;SDS011;11994;51.038;16.974;2022-12-07T00:03:39;8.38;;;5.45;;
23634;SDS011;11994;51.038;16.974;2022-12-07T00:06:07;7.65;;;5.40;;
23634;SDS011;11994;51.038;16.974;2022-12-07T00:08:35;6.78;;;4.87;;
23634;SDS011;11994;51.038;16.974;2022-12-07T00:11:06;5.72;;;3.95;;
23634;SDS011;11994;51.038;16.974;2022-12-07T00:13:32;5.62;;;4.15;;
23634;SDS011;11994;51.038;16.974;2022-12-07T00:16:00;8.93;;;4.95;;
23634;SDS011;11994;51.038;16.974;2022-12-07T00:18:32;5.90;;;4.50;;
23634;SDS011;11994;51.038;16.974;2022-12-07T00:21:01;7.03;;;4.95;;
23634;SDS011;11994;51.038;16.974;2022-12-07T00:23:34;6.85;;;4.03;;
23634;SDS011;11994;51.038;16.974;2022-12-07T00:26:08;5.65;;;4.20;;
23634;SDS011;11994;51.038;16.974;2022-12-07T00:28:39;6.37;;;4.40;;
23634;SDS011;11994;51.038;16.974;2022-12-07T00:31:07;5.85;;;4.45;;
23634;SDS011;11994;51.038;16.974;2022-12-07T00:33:36;5.47;;;4.30;;
23634;SDS011;11994;51.038;16.974;2022-12-07T00:36:04;5.42;;;4.30;;
23634;SDS011;11994;51.038;16.974;2022-12-07T00:38:35;4.67;;;3.55;;
23634;SDS011;11994;51.038;16.974;2022-12-07T00:41:03;4.10;;;3.00;;
23634;SDS011;11994;51.038;16.974;2022-12-07T00:43:36;5.05;;;3.00;;
23634;SDS011;11994;51.038;16.974;2022-12-07T00:46:02;4.20;;;3.10;;
23634;SDS011;11994;51.038;16.974;2022-12-07T00:48:28;4.30;;;2.90;;
23634;SDS011;11994;51.038;16.974;2022-12-07T00:50:55;3.55;;;2.55;;
23634;SDS011;11994;51.038;16.974;2022-12-07T00:53:22;3.77;;;2.42;;
23634;SDS011;11994;51.038;16.974;2022-12-07T00:55:48;4.85;;;2.55;;
23634;SDS011;11994;51.038;16.974;2022-12-07T00:58:14;4.33;;;2.65;;
23634;SDS011;11994;51.038;16.974;2022-12-07T01:00:41;3.92;;;2.35;;
23634;SDS011;11994;51.038;16.974;2022-12-07T01:03:09;3.83;;;2.50;;
23634;SDS011;11994;51.038;16.974;2022-12-07T01:05:37;3.50;;;2.00;;
23634;SDS011;11994;51.038;16.974;2022-12-07T01:08:03;2.95;;;1.85;;
23634;SDS011;11994;51.038;16.974;2022-12-07T01:10:29;3.27;;;1.98;;
23634;SDS011;11994;51.038;16.974;2022-12-07T01:12:56;2.45;;;1.67;;
23634;SDS011;11994;51.038;16.974;2022-12-07T01:15:23;3.30;;;1.98;;
23634;SDS011;11994;51.038;16.974;2022-12-07T01:17:51;2.95;;;1.98;;
23634;SDS011;11994;51.038;16.974;2022-12-07T01:20:17;2.80;;;1.92;;
23634;SDS011;11994;51.038;16.974;2022-12-07T01:22:43;4.12;;;2.00;;
23634;SDS011;11994;51.038;16.974;2022-12-07T01:25:09;4.72;;;1.87;;
23634;SDS011;11994;51.038;16.974;2022-12-07T01:27:37;3.22;;;1.98;;
23634;SDS011;11994;51.038;16.974;2022-12-07T01:30:03;4.50;;;2.02;;
23634;SDS011;11994;51.038;16.974;2022-12-07T01:32:32;3.65;;;2.15;;
23634;SDS011;11994;51.038;16.974;2022-12-07T01:34:58;3.30;;;2.00;;
23634;SDS011;11994;51.038;16.974;2022-12-07T01:37:24;2.97;;;1.97;;
23634;SDS011;11994;51.038;16.974;2022-12-07T01:39:50;3.60;;;1.70;;
23634;SDS011;11994;51.038;16.974;2022-12-07T01:42:18;3.05;;;1.57;;
23634;SDS011;11994;51.038;16.974;2022-12-07T01:45:15;2.50;;;1.60;;
23634;SDS011;11994;51.038;16.974;2022-12-07T01:47:38;2.05;;;1.35;;
23634;SDS011;11994;51.038;16.974;2022-12-07T01:50:04;2.45;;;1.40;;
23634;SDS011;11994;51.038;16.974;2022-12-07T01:52:31;2.47;;;1.60;;
23634;SDS011;11994;51.038;16.974;2022-12-07T01:55:04;2.27;;;1.27;;
23634;SDS011;11994;51.038;16.974;2022-12-07T01:57:34;2.37;;;1.37;;
23634;SDS011;11994;51.038;16.974;2022-12-07T02:00:05;2.98;;;1.50;;
23634;SDS011;11994;51.038;16.974;2022-12-07T02:02:34;2.27;;;1.40;;
23634;SDS011;11994;51.038;16.974;2022-12-07T02:05:04;1.52;;;1.10;;
23634;SDS011;11994;51.038;16.974;2022-12-07T02:07:32;2.87;;;1.30;;
23634;SDS011;11994;51.038;16.974;2022-12-07T02:10:12;2.40;;;1.20;;
23634;SDS011;11994;51.038;16.974;2022-12-07T02:12:41;2.62;;;1.30;;
23634;SDS011;11994;51.038;16.974;2022-12-07T02:15:10;3.20;;;1.30;;
23634;SDS011;11994;51.038;16.974;2022-12-07T02:18:22;3.95;;;1.35;;
23634;SDS011;11994;51.038;16.974;2022-12-07T02:20:26;2.22;;;1.30;;
23634;SDS011;11994;51.038;16.974;2022-12-07T02:29:16;2.72;;;1.30;;
23634;SDS011;11994;51.038;16.974;2022-12-07T02:32:03;2.87;;;1.27;;
23634;SDS011;11994;51.038;16.974;2022-12-07T02:35:01;3.90;;;1.92;;
23634;SDS011;11994;51.038;16.974;2022-12-07T02:37:42;3.20;;;1.60;;
23634;SDS011;11994;51.038;16.974;2022-12-07T02:40:40;2.20;;;1.22;;
23634;SDS011;11994;51.038;16.974;2022-12-07T02:43:14;2.10;;;1.30;;
23634;SDS011;11994;51.038;16.974;2022-12-07T02:45:42;4.28;;;1.20;;
23634;SDS011;11994;51.038;16.974;2022-12-07T02:48:12;2.05;;;1.20;;
23634;SDS011;11994;51.038;16.974;2022-12-07T02:50:45;3.47;;;1.10;;
23634;SDS011;11994;51.038;16.974;2022-12-07T02:53:29;2.37;;;0.90;;
23634;SDS011;11994;51.038;16.974;2022-12-07T03:02:42;1.90;;;1.10;;
23634;SDS011;11994;51.038;16.974;2022-12-07T03:08:06;1.95;;;1.10;;
23634;SDS011;11994;51.038;16.974;2022-12-07T03:13:25;2.45;;;1.40;;
23634;SDS011;11994;51.038;16.974;2022-12-07T03:18:53;3.17;;;1.32;;
23634;SDS011;11994;51.038;16.974;2022-12-07T03:21:31;2.23;;;1.40;;
23634;SDS011;11994;51.038;16.974;2022-12-07T03:24:02;2.92;;;1.60;;
23634;SDS011;11994;51.038;16.974;2022-12-07T03:26:34;6.85;;;1.70;;
23634;SDS011;11994;51.038;16.974;2022-12-07T03:29:05;2.43;;;1.57;;
23634;SDS011;11994;51.038;16.974;2022-12-07T03:31:38;3.00;;;1.60;;
23634;SDS011;11994;51.038;16.974;2022-12-07T03:39:44;2.17;;;1.30;;
23634;SDS011;11994;51.038;16.974;2022-12-07T03:42:24;1.65;;;1.27;;
23634;SDS011;11994;51.038;16.974;2022-12-07T03:44:50;2.40;;;1.67;;
23634;SDS011;11994;51.038;16.974;2022-12-07T03:47:26;2.65;;;1.62;;
23634;SDS011;11994;51.038;16.974;2022-12-07T03:50:02;2.97;;;1.50;;
23634;SDS011;11994;51.038;16.974;2022-12-07T03:52:39;2.30;;;1.50;;
23634;SDS011;11994;51.038;16.974;2022-12-07T03:55:11;2.00;;;1.32;;
23634;SDS011;11994;51.038;16.974;2022-12-07T03:57:43;2.00;;;1.37;;
23634;SDS011;11994;51.038;16.974;2022-12-07T04:00:13;1.90;;;1.47;;
23634;SDS011;11994;51.038;16.974;2022-12-07T04:02:40;1.98;;;1.42;;
23634;SDS011;11994;51.038;16.974;2022-12-07T04:05:07;3.45;;;1.67;;
23634;SDS011;11994;51.038;16.974;2022-12-07T04:07:34;2.25;;;1.60;;
23634;SDS011;11994;51.038;16.974;2022-12-07T04:10:00;2.40;;;1.40;;
23634;SDS011;11994;51.038;16.974;2022-12-07T04:12:25;2.30;;;1.62;;
23634;SDS011;11994;51.038;16.974;2022-12-07T04:14:51;2.50;;;1.50;;
23634;SDS011;11994;51.038;16.974;2022-12-07T04:17:17;2.40;;;1.70;;
23634;SDS011;11994;51.038;16.974;2022-12-07T04:19:43;2.10;;;1.47;;
23634;SDS011;11994;51.038;16.974;2022-12-07T04:22:08;2.10;;;1.50;;
23634;SDS011;11994;51.038;16.974;2022-12-07T04:24:35;1.80;;;1.40;;
23634;SDS011;11994;51.038;16.974;2022-12-07T04:27:01;2.20;;;1.40;;
23634;SDS011;11994;51.038;16.974;2022-12-07T04:29:28;2.40;;;1.50;;
23634;SDS011;11994;51.038;16.974;2022-12-07T04:31:54;2.23;;;1.50;;
23634;SDS011;11994;51.038;16.974;2022-12-07T04:34:20;2.85;;;1.50;;
23634;SDS011;11994;51.038;16.974;2022-12-07T04:36:46;2.50;;;1.60;;
23634;SDS011;11994;51.038;16.974;2022-12-07T04:39:23;1.87;;;1.20;;
23634;SDS011;11994;51.038;16.974;2022-12-07T04:41:55;1.92;;;1.32;;
23634;SDS011;11994;51.038;16.974;2022-12-07T04:44:22;2.47;;;1.42;;
23634;SDS011;11994;51.038;16.974;2022-12-07T04:46:50;2.05;;;1.35;;
23634;SDS011;11994;51.038;16.974;2022-12-07T04:49:17;1.98;;;1.32;;
23634;SDS011;11994;51.038;16.974;2022-12-07T04:51:44;2.00;;;1.32;;
23634;SDS011;11994;51.038;16.974;2022-12-07T04:54:11;2.72;;;1.57;;
23634;SDS011;11994;51.038;16.974;2022-12-07T04:56:39;2.02;;;1.30;;
23634;SDS011;11994;51.038;16.974;2022-12-07T04:59:05;2.33;;;1.50;;
23634;SDS011;11994;51.038;16.974;2022-12-07T05:01:32;3.45;;;1.60;;
23634;SDS011;11994;51.038;16.974;2022-12-07T05:03:58;2.75;;;1.30;;
23634;SDS011;11994;51.038;16.974;2022-12-07T05:06:24;2.87;;;1.70;;
23634;SDS011;11994;51.038;16.974;2022-12-07T05:08:50;2.50;;;1.55;;
23634;SDS011;11994;51.038;16.974;2022-12-07T05:11:16;2.70;;;1.65;;
23634;SDS011;11994;51.038;16.974;2022-12-07T05:14:02;2.27;;;1.40;;
23634;SDS011;11994;51.038;16.974;2022-12-07T05:16:32;2.47;;;1.80;;
23634;SDS011;11994;51.038;16.974;2022-12-07T05:18:58;4.62;;;2.22;;
23634;SDS011;11994;51.038;16.974;2022-12-07T05:21:24;5.20;;;2.30;;
23634;SDS011;11994;51.038;16.974;2022-12-07T05:23:50;2.83;;;2.17;;
23634;SDS011;11994;51.038;16.974;2022-12-07T05:26:17;4.78;;;2.70;;
23634;SDS011;11994;51.038;16.974;2022-12-07T05:28:43;4.37;;;2.62;;
23634;SDS011;11994;51.038;16.974;2022-12-07T05:31:09;5.83;;;3.60;;
23634;SDS011;11994;51.038;16.974;2022-12-07T05:33:35;5.27;;;3.93;;
23634;SDS011;11994;51.038;16.974;2022-12-07T05:36:01;5.72;;;4.15;;
23634;SDS011;11994;51.038;16.974;2022-12-07T05:38:29;6.97;;;4.97;;
23634;SDS011;11994;51.038;16.974;2022-12-07T05:40:55;7.70;;;5.60;;
23634;SDS011;11994;51.038;16.974;2022-12-07T05:43:20;8.80;;;6.30;;
23634;SDS011;11994;51.038;16.974;2022-12-07T05:45:47;8.95;;;7.20;;
23634;SDS011;11994;51.038;16.974;2022-12-07T05:48:12;10.20;;;8.15;;
23634;SDS011;11994;51.038;16.974;2022-12-07T05:50:38;12.07;;;8.65;;
23634;SDS011;11994;51.038;16.974;2022-12-07T05:53:04;12.57;;;9.47;;
23634;SDS011;11994;51.038;16.974;2022-12-07T05:55:30;13.50;;;9.50;;
23634;SDS011;11994;51.038;16.974;2022-12-07T05:57:55;11.37;;;9.20;;
23634;SDS011;11994;51.038;16.974;2022-12-07T06:00:40;10.63;;;8.85;;
23634;SDS011;11994;51.038;16.974;2022-12-07T06:03:05;11.48;;;8.35;;
23634;SDS011;11994;51.038;16.974;2022-12-07T06:05:31;12.60;;;9.70;;
23634;SDS011;11994;51.038;16.974;2022-12-07T06:07:57;11.07;;;8.93;;
23634;SDS011;11994;51.038;16.974;2022-12-07T06:10:23;12.73;;;10.33;;
23634;SDS011;11994;51.038;16.974;2022-12-07T06:12:49;13.48;;;11.28;;
23634;SDS011;11994;51.038;16.974;2022-12-07T06:15:15;14.60;;;11.05;;
23634;SDS011;11994;51.038;16.974;2022-12-07T06:17:41;16.40;;;11.20;;
23634;SDS011;11994;51.038;16.974;2022-12-07T06:20:07;14.23;;;10.97;;
23634;SDS011;11994;51.038;16.974;2022-12-07T06:22:33;13.28;;;11.20;;
23634;SDS011;11994;51.038;16.974;2022-12-07T06:24:59;15.63;;;12.05;;
23634;SDS011;11994;51.038;16.974;2022-12-07T06:27:26;15.80;;;12.53;;
23634;SDS011;11994;51.038;16.974;2022-12-07T06:29:52;13.93;;;11.33;;
23634;SDS011;11994;51.038;16.974;2022-12-07T06:32:18;14.27;;;11.87;;
23634;SDS011;11994;51.038;16.974;2022-12-07T06:34:43;13.67;;;11.47;;
23634;SDS011;11994;51.038;16.974;2022-12-07T06:37:09;13.75;;;10.88;;
23634;SDS011;11994;51.038;16.974;2022-12-07T06:39:35;15.45;;;12.35;;
23634;SDS011;11994;51.038;16.974;2022-12-07T06:42:01;15.53;;;12.73;;
23634;SDS011;11994;51.038;16.974;2022-12-07T06:44:26;17.43;;;13.40;;
23634;SDS011;11994;51.038;16.974;2022-12-07T06:46:52;16.00;;;13.50;;
23634;SDS011;11994;51.038;16.974;2022-12-07T06:49:18;17.57;;;13.65;;
23634;SDS011;11994;51.038;16.974;2022-12-07T06:51:44;14.87;;;11.50;;
23634;SDS011;11994;51.038;16.974;2022-12-07T06:54:10;15.60;;;11.40;;
23634;SDS011;11994;51.038;16.974;2022-12-07T06:56:38;15.03;;;12.25;;
23634;SDS011;11994;51.038;16.974;2022-12-07T06:59:04;14.60;;;11.87;;
23634;SDS011;11994;51.038;16.974;2022-12-07T07:01:31;17.05;;;12.88;;
23634;SDS011;11994;51.038;16.974;2022-12-07T07:03:59;15.55;;;12.45;;
23634;SDS011;11994;51.038;16.974;2022-12-07T07:06:25;17.42;;;13.50;;
23634;SDS011;11994;51.038;16.974;2022-12-07T07:08:51;16.52;;;12.78;;
23634;SDS011;11994;51.038;16.974;2022-12-07T07:11:17;14.63;;;11.50;;
23634;SDS011;11994;51.038;16.974;2022-12-07T07:13:43;15.65;;;10.90;;
23634;SDS011;11994;51.038;16.974;2022-12-07T07:16:10;13.43;;;11.38;;
23634;SDS011;11994;51.038;16.974;2022-12-07T07:18:36;17.05;;;13.15;;
23634;SDS011;11994;51.038;16.974;2022-12-07T07:21:02;17.87;;;14.00;;
23634;SDS011;11994;51.038;16.974;2022-12-07T07:23:29;15.55;;;12.40;;
23634;SDS011;11994;51.038;16.974;2022-12-07T07:25:55;17.92;;;11.88;;
23634;SDS011;11994;51.038;16.974;2022-12-07T07:28:21;16.05;;;12.53;;
23634;SDS011;11994;51.038;16.974;2022-12-07T07:30:47;18.32;;;12.58;;
23634;SDS011;11994;51.038;16.974;2022-12-07T07:33:13;17.87;;;12.97;;
23634;SDS011;11994;51.038;16.974;2022-12-07T07:35:39;22.05;;;15.63;;
23634;SDS011;11994;51.038;16.974;2022-12-07T07:38:05;18.50;;;14.50;;
23634;SDS011;11994;51.038;16.974;2022-12-07T07:40:33;21.77;;;15.75;;
23634;SDS011;11994;51.038;16.974;2022-12-07T07:43:00;18.82;;;13.93;;
23634;SDS011;11994;51.038;16.974;2022-12-07T07:45:26;15.80;;;12.93;;
23634;SDS011;11994;51.038;16.974;2022-12-07T07:47:53;19.50;;;13.78;;
23634;SDS011;11994;51.038;16.974;2022-12-07T07:50:19;19.48;;;14.70;;
23634;SDS011;11994;51.038;16.974;2022-12-07T07:52:46;18.85;;;14.43;;
23634;SDS011;11994;51.038;16.974;2022-12-07T07:55:12;20.20;;;14.00;;
23634;SDS011;11994;51.038;16.974;2022-12-07T07:57:39;17.87;;;13.90;;
23634;SDS011;11994;51.038;16.974;2022-12-07T08:00:10;15.88;;;13.00;;
23634;SDS011;11994;51.038;16.974;2022-12-07T08:05:02;20.17;;;14.23;;
23634;SDS011;11994;51.038;16.974;2022-12-07T08:07:28;17.60;;;13.03;;
23634;SDS011;11994;51.038;16.974;2022-12-07T08:09:54;14.03;;;11.00;;
23634;SDS011;11994;51.038;16.974;2022-12-07T08:12:20;15.07;;;11.77;;
23634;SDS011;11994;51.038;16.974;2022-12-07T08:14:46;15.85;;;12.50;;
23634;SDS011;11994;51.038;16.974;2022-12-07T08:17:12;16.32;;;12.63;;
23634;SDS011;11994;51.038;16.974;2022-12-07T08:19:38;16.25;;;12.85;;
23634;SDS011;11994;51.038;16.974;2022-12-07T08:22:04;17.45;;;13.03;;
23634;SDS011;11994;51.038;16.974;2022-12-07T08:24:32;15.53;;;12.77;;
23634;SDS011;11994;51.038;16.974;2022-12-07T08:27:01;16.25;;;12.28;;
23634;SDS011;11994;51.038;16.974;2022-12-07T08:29:27;18.82;;;12.90;;
23634;SDS011;11994;51.038;16.974;2022-12-07T08:31:53;15.65;;;11.53;;
23634;SDS011;11994;51.038;16.974;2022-12-07T08:34:20;15.95;;;12.78;;
23634;SDS011;11994;51.038;16.974;2022-12-07T08:36:45;15.20;;;12.53;;
23634;SDS011;11994;51.038;16.974;2022-12-07T08:39:11;15.15;;;12.18;;
23634;SDS011;11994;51.038;16.974;2022-12-07T08:41:37;16.97;;;12.07;;
23634;SDS011;11994;51.038;16.974;2022-12-07T08:44:03;16.37;;;12.93;;
23634;SDS011;11994;51.038;16.974;2022-12-07T08:46:34;17.32;;;14.10;;
23634;SDS011;11994;51.038;16.974;2022-12-07T08:49:14;16.12;;;12.90;;
23634;SDS011;11994;51.038;16.974;2022-12-07T08:51:46;15.65;;;11.20;;
23634;SDS011;11994;51.038;16.974;2022-12-07T08:54:14;14.30;;;11.18;;
23634;SDS011;11994;51.038;16.974;2022-12-07T08:56:42;16.67;;;11.88;;
23634;SDS011;11994;51.038;16.974;2022-12-07T08:59:10;17.75;;;13.75;;
23634;SDS011;11994;51.038;16.974;2022-12-07T09:01:39;18.12;;;14.53;;
23634;SDS011;11994;51.038;16.974;2022-12-07T09:04:05;16.25;;;13.20;;
23634;SDS011;11994;51.038;16.974;2022-12-07T09:06:31;17.15;;;13.10;;
23634;SDS011;11994;51.038;16.974;2022-12-07T09:08:57;18.57;;;13.50;;
23634;SDS011;11994;51.038;16.974;2022-12-07T09:11:25;13.10;;;10.58;;
23634;SDS011;11994;51.038;16.974;2022-12-07T09:13:52;13.60;;;10.88;;
23634;SDS011;11994;51.038;16.974;2022-12-07T09:16:18;14.38;;;10.50;;
23634;SDS011;11994;51.038;16.974;2022-12-07T09:18:44;10.78;;;8.63;;
23634;SDS011;11994;51.038;16.974;2022-12-07T09:21:09;12.85;;;9.73;;
23634;SDS011;11994;51.038;16.974;2022-12-07T09:23:35;11.45;;;9.00;;
23634;SDS011;11994;51.038;16.974;2022-12-07T09:26:02;12.70;;;9.50;;
23634;SDS011;11994;51.038;16.974;2022-12-07T09:28:30;13.03;;;9.05;;
23634;SDS011;11994;51.038;16.974;2022-12-07T09:30:56;11.83;;;9.88;;
23634;SDS011;11994;51.038;16.974;2022-12-07T09:33:22;13.68;;;9.35;;
23634;SDS011;11994;51.038;16.974;2022-12-07T09:35:49;11.97;;;9.35;;
23634;SDS011;11994;51.038;16.974;2022-12-07T09:38:16;13.18;;;9.73;;
23634;SDS011;11994;51.038;16.974;2022-12-07T09:40:44;13.00;;;9.30;;
23634;SDS011;11994;51.038;16.974;2022-12-07T09:43:15;10.65;;;8.45;;
23634;SDS011;11994;51.038;16.974;2022-12-07T09:45:45;10.88;;;7.78;;
23634;SDS011;11994;51.038;16.974;2022-12-07T09:48:18;10.70;;;8.65;;
23634;SDS011;11994;51.038;16.974;2022-12-07T09:50:57;12.25;;;9.28;;
23634;SDS011;11994;51.038;16.974;2022-12-07T09:53:26;11.00;;;9.33;;
23634;SDS011;11994;51.038;16.974;2022-12-07T09:56:01;14.47;;;10.03;;
23634;SDS011;11994;51.038;16.974;2022-12-07T09:58:28;13.43;;;10.38;;
23634;SDS011;11994;51.038;16.974;2022-12-07T10:00:58;13.85;;;10.90;;
23634;SDS011;11994;51.038;16.974;2022-12-07T10:03:37;14.00;;;10.70;;
23634;SDS011;11994;51.038;16.974;2022-12-07T10:06:09;17.40;;;12.00;;
23634;SDS011;11994;51.038;16.974;2022-12-07T10:08:38;15.00;;;11.85;;
23634;SDS011;11994;51.038;16.974;2022-12-07T10:11:05;14.73;;;11.12;;
23634;SDS011;11994;51.038;16.974;2022-12-07T10:13:34;14.15;;;10.90;;
23634;SDS011;11994;51.038;16.974;2022-12-07T10:16:04;16.60;;;12.35;;
23634;SDS011;11994;51.038;16.974;2022-12-07T10:18:35;18.98;;;12.93;;
23634;SDS011;11994;51.038;16.974;2022-12-07T10:21:17;20.27;;;14.35;;
23634;SDS011;11994;51.038;16.974;2022-12-07T10:24:01;15.35;;;11.65;;
23634;SDS011;11994;51.038;16.974;2022-12-07T10:29:24;18.42;;;13.13;;
23634;SDS011;11994;51.038;16.974;2022-12-07T10:32:01;15.53;;;11.18;;
23634;SDS011;11994;51.038;16.974;2022-12-07T10:34:32;14.05;;;10.72;;
23634;SDS011;11994;51.038;16.974;2022-12-07T10:39:46;20.10;;;13.60;;
23634;SDS011;11994;51.038;16.974;2022-12-07T10:59:18;5.83;;;3.83;;
23634;SDS011;11994;51.038;16.974;2022-12-07T11:13:47;7.53;;;4.30;;
23634;SDS011;11994;51.038;16.974;2022-12-07T11:22:06;6.00;;;4.00;;
23634;SDS011;11994;51.038;16.974;2022-12-07T11:24:27;9.98;;;6.20;;
23634;SDS011;11994;51.038;16.974;2022-12-07T11:38:18;16.80;;;10.35;;
23634;SDS011;11994;51.038;16.974;2022-12-07T11:41:01;10.95;;;6.40;;
23634;SDS011;11994;51.038;16.974;2022-12-07T11:46:42;6.85;;;3.70;;
23634;SDS011;11994;51.038;16.974;2022-12-07T11:52:25;5.78;;;3.65;;
23634;SDS011;11994;51.038;16.974;2022-12-07T11:55:17;5.53;;;3.55;;
23634;SDS011;11994;51.038;16.974;2022-12-07T11:57:46;6.70;;;3.25;;
23634;SDS011;11994;51.038;16.974;2022-12-07T12:00:17;7.10;;;4.55;;
23634;SDS011;11994;51.038;16.974;2022-12-07T12:02:48;4.58;;;3.20;;
23634;SDS011;11994;51.038;16.974;2022-12-07T12:05:22;5.28;;;3.47;;
23634;SDS011;11994;51.038;16.974;2022-12-07T12:07:52;5.72;;;3.30;;
23634;SDS011;11994;51.038;16.974;2022-12-07T12:13:20;4.45;;;3.10;;
23634;SDS011;11994;51.038;16.974;2022-12-07T12:16:21;5.72;;;3.40;;
23634;SDS011;11994;51.038;16.974;2022-12-07T12:21:29;5.60;;;3.90;;
23634;SDS011;11994;51.038;16.974;2022-12-07T12:26:32;6.10;;;3.20;;
23634;SDS011;11994;51.038;16.974;2022-12-07T12:29:01;4.30;;;3.00;;
23634;SDS011;11994;51.038;16.974;2022-12-07T12:31:39;4.85;;;3.55;;
23634;SDS011;11994;51.038;16.974;2022-12-07T12:42:53;6.62;;;3.95;;
23634;SDS011;11994;51.038;16.974;2022-12-07T12:45:28;6.15;;;3.83;;
23634;SDS011;11994;51.038;16.974;2022-12-07T12:51:45;6.55;;;4.25;;
23634;SDS011;11994;51.038;16.974;2022-12-07T12:54:05;7.95;;;4.53;;
23634;SDS011;11994;51.038;16.974;2022-12-07T12:56:53;8.95;;;4.50;;
23634;SDS011;11994;51.038;16.974;2022-12-07T13:29:20;8.98;;;5.40;;
23634;SDS011;11994;51.038;16.974;2022-12-07T13:31:51;13.03;;;6.58;;
23634;SDS011;11994;51.038;16.974;2022-12-07T13:34:28;9.43;;;5.87;;
23634;SDS011;11994;51.038;16.974;2022-12-07T13:37:14;11.50;;;6.83;;
23634;SDS011;11994;51.038;16.974;2022-12-07T13:45:00;13.30;;;6.90;;
23634;SDS011;11994;51.038;16.974;2022-12-07T13:47:43;7.47;;;4.87;;
23634;SDS011;11994;51.038;16.974;2022-12-07T13:50:29;7.80;;;4.42;;
23634;SDS011;11994;51.038;16.974;2022-12-07T13:53:01;8.43;;;4.95;;
23634;SDS011;11994;51.038;16.974;2022-12-07T13:55:26;7.78;;;4.25;;
23634;SDS011;11994;51.038;16.974;2022-12-07T13:57:54;8.45;;;4.60;;
23634;SDS011;11994;51.038;16.974;2022-12-07T14:00:22;8.25;;;4.47;;
23634;SDS011;11994;51.038;16.974;2022-12-07T14:05:30;6.30;;;4.70;;
23634;SDS011;11994;51.038;16.974;2022-12-07T14:08:05;9.33;;;4.20;;
23634;SDS011;11994;51.038;16.974;2022-12-07T14:10:40;8.90;;;4.30;;
23634;SDS011;11994;51.038;16.974;2022-12-07T14:13:27;8.40;;;4.37;;
23634;SDS011;11994;51.038;16.974;2022-12-07T14:16:18;8.08;;;4.62;;
23634;SDS011;11994;51.038;16.974;2022-12-07T14:18:46;8.38;;;5.25;;
23634;SDS011;11994;51.038;16.974;2022-12-07T14:23:43;11.22;;;6.47;;
23634;SDS011;11994;51.038;16.974;2022-12-07T14:26:14;8.35;;;5.20;;
23634;SDS011;11994;51.038;16.974;2022-12-07T14:28:45;9.35;;;5.72;;
23634;SDS011;11994;51.038;16.974;2022-12-07T14:31:13;11.88;;;7.58;;
23634;SDS011;11994;51.038;16.974;2022-12-07T14:33:42;8.70;;;4.85;;
23634;SDS011;11994;51.038;16.974;2022-12-07T14:36:13;8.40;;;4.83;;
23634;SDS011;11994;51.038;16.974;2022-12-07T14:38:37;9.10;;;5.03;;
23634;SDS011;11994;51.038;16.974;2022-12-07T14:41:04;11.00;;;6.08;;
23634;SDS011;11994;51.038;16.974;2022-12-07T14:43:59;7.42;;;5.15;;
23634;SDS011;11994;51.038;16.974;2022-12-07T14:46:25;8.70;;;5.85;;
23634;SDS011;11994;51.038;16.974;2022-12-07T14:48:51;10.58;;;6.03;;
23634;SDS011;11994;51.038;16.974;2022-12-07T14:51:17;13.48;;;7.42;;
23634;SDS011;11994;51.038;16.974;2022-12-07T14:53:48;10.88;;;6.12;;
23634;SDS011;11994;51.038;16.974;2022-12-07T14:56:15;8.50;;;5.67;;
23634;SDS011;11994;51.038;16.974;2022-12-07T14:58:41;11.25;;;6.30;;
23634;SDS011;11994;51.038;16.974;2022-12-07T15:01:07;9.78;;;5.92;;
23634;SDS011;11994;51.038;16.974;2022-12-07T15:03:33;12.43;;;6.47;;
23634;SDS011;11994;51.038;16.974;2022-12-07T15:06:01;11.12;;;6.87;;
23634;SDS011;11994;51.038;16.974;2022-12-07T15:08:26;8.53;;;5.50;;
23634;SDS011;11994;51.038;16.974;2022-12-07T15:10:52;7.75;;;5.15;;
23634;SDS011;11994;51.038;16.974;2022-12-07T15:13:18;7.50;;;4.58;;
23634;SDS011;11994;51.038;16.974;2022-12-07T15:16:02;7.67;;;4.85;;
23634;SDS011;11994;51.038;16.974;2022-12-07T15:18:30;9.68;;;4.95;;
23634;SDS011;11994;51.038;16.974;2022-12-07T15:20:56;9.33;;;5.37;;
23634;SDS011;11994;51.038;16.974;2022-12-07T15:23:21;7.45;;;4.83;;
23634;SDS011;11994;51.038;16.974;2022-12-07T15:25:48;12.53;;;5.20;;
23634;SDS011;11994;51.038;16.974;2022-12-07T15:28:14;8.30;;;5.10;;
23634;SDS011;11994;51.038;16.974;2022-12-07T15:30:41;8.28;;;5.22;;
23634;SDS011;11994;51.038;16.974;2022-12-07T15:33:08;6.90;;;4.55;;
23634;SDS011;11994;51.038;16.974;2022-12-07T15:35:42;7.72;;;4.90;;
23634;SDS011;11994;51.038;16.974;2022-12-07T15:38:09;7.83;;;4.45;;
23634;SDS011;11994;51.038;16.974;2022-12-07T15:40:36;8.18;;;4.25;;
23634;SDS011;11994;51.038;16.974;2022-12-07T15:43:02;9.45;;;5.50;;
23634;SDS011;11994;51.038;16.974;2022-12-07T15:45:29;12.80;;;6.53;;
23634;SDS011;11994;51.038;16.974;2022-12-07T15:47:54;10.70;;;7.00;;
23634;SDS011;11994;51.038;16.974;2022-12-07T15:50:20;11.15;;;5.67;;
23634;SDS011;11994;51.038;16.974;2022-12-07T15:52:47;12.18;;;6.28;;
23634;SDS011;11994;51.038;16.974;2022-12-07T15:55:14;9.38;;;5.83;;
23634;SDS011;11994;51.038;16.974;2022-12-07T15:57:39;8.57;;;4.93;;
23634;SDS011;11994;51.038;16.974;2022-12-07T16:00:06;7.08;;;4.62;;
23634;SDS011;11994;51.038;16.974;2022-12-07T16:02:34;7.62;;;4.17;;
23634;SDS011;11994;51.038;16.974;2022-12-07T16:05:01;7.28;;;3.67;;
23634;SDS011;11994;51.038;16.974;2022-12-07T16:07:27;7.78;;;4.75;;
23634;SDS011;11994;51.038;16.974;2022-12-07T16:09:53;8.57;;;4.83;;
23634;SDS011;11994;51.038;16.974;2022-12-07T16:12:19;9.40;;;5.83;;
23634;SDS011;11994;51.038;16.974;2022-12-07T16:14:45;8.28;;;5.25;;
23634;SDS011;11994;51.038;16.974;2022-12-07T16:17:11;7.80;;;4.25;;
23634;SDS011;11994;51.038;16.974;2022-12-07T16:19:37;7.45;;;4.28;;
23634;SDS011;11994;51.038;16.974;2022-12-07T16:22:03;8.25;;;4.58;;
23634;SDS011;11994;51.038;16.974;2022-12-07T16:24:30;8.23;;;4.20;;
23634;SDS011;11994;51.038;16.974;2022-12-07T16:26:57;8.58;;;4.25;;
23634;SDS011;11994;51.038;16.974;2022-12-07T16:29:23;6.87;;;4.12;;
23634;SDS011;11994;51.038;16.974;2022-12-07T16:31:50;10.00;;;5.25;;
23634;SDS011;11994;51.038;16.974;2022-12-07T16:34:16;8.93;;;4.90;;
23634;SDS011;11994;51.038;16.974;2022-12-07T16:36:43;8.23;;;3.87;;
23634;SDS011;11994;51.038;16.974;2022-12-07T16:39:10;6.53;;;3.67;;
23634;SDS011;11994;51.038;16.974;2022-12-07T16:41:36;6.53;;;4.10;;
23634;SDS011;11994;51.038;16.974;2022-12-07T16:44:03;7.92;;;4.45;;
23634;SDS011;11994;51.038;16.974;2022-12-07T16:46:32;8.38;;;4.60;;
23634;SDS011;11994;51.038;16.974;2022-12-07T16:48:59;7.95;;;4.97;;
23634;SDS011;11994;51.038;16.974;2022-12-07T16:51:26;10.48;;;5.62;;
23634;SDS011;11994;51.038;16.974;2022-12-07T16:53:53;10.15;;;6.67;;
23634;SDS011;11994;51.038;16.974;2022-12-07T16:56:19;22.70;;;13.55;;
23634;SDS011;11994;51.038;16.974;2022-12-07T16:58:45;16.55;;;11.43;;
23634;SDS011;11994;51.038;16.974;2022-12-07T17:01:17;11.20;;;6.60;;
23634;SDS011;11994;51.038;16.974;2022-12-07T17:03:46;11.00;;;6.90;;
23634;SDS011;11994;51.038;16.974;2022-12-07T17:06:19;12.85;;;8.85;;